x

Seal Rocks - Between Montague And Hinchinbrook Islands, Ak (46061) Wave Buoy

5:50am - Tue 9th Feb 2016 All times are AKST. -9 hours from GMT.

  • Sig Wave height 5.9ft
  • Swell Direction
  • Peak Period 12s
  • Average Period 8s
  • Wind
    9mph, 11mph gusts
  • Sea Temp 43°f
  • Air Temp 42°f
  • Sea Pressure 1018.2mb
  • Seal Rocks - Between Montague And Hinchinbrook Islands, Ak
  • Seal Rocks - Between Montague And Hinchinbrook Islands, Ak

More Historic Weather Station data

Upgrade to MSW Pro to gain access to the past 30 days of data for over 8000 Wavebouys and Weather Stations around the globe.

Join Pro

Comparision Forecast

View Surf forecast
   
Tue 02/09 5:50am 6ft 12s 8s 9 11 mph 1018.2mb 43f 42f
4:50am 6ft 12s 8s 4 7 mph 1017.4mb 42f 42f
2:50am 7ft 11s 8s 7 9 mph 1016.1mb 43f 40f
1:50am 7ft 11s 8s 13 16 mph 1015.3mb 43f 40f
12:50am 9ft 13s 9s 2
mph
1014.1mb 43f 41f
Mon 02/08 11:50pm 9.5ft 11s 8s 2 4 mph 1013.2mb 43f 41f
10:50pm 10ft 12s 8s 2 7 mph 1012.5mb 43f 41f
9:50pm 11ft 11s 9s 2 7 mph 1011.9mb 43f 41f
8:50pm 10ft 13s 8s 4 7 mph 1011.1mb 43f 41f
7:50pm 10.5ft 13s 8s 4 7 mph 1010.8mb 43f 42f
6:50pm 11.5ft 14s 9s 7 11 mph 1010.5mb 44f 42f
5:50pm 12ft 14s 9s 9 11 mph 1010.4mb 43f 42f
4:50pm 11.5ft 13s 9s 13 18 mph 1010.5mb 43f 42f
3:50pm 10ft 13s 9s 16 18 mph 1010.3mb 44f 42f
2:50pm 11ft 12s 9s 18 22 mph 1010.4mb 43f 41f
1:50pm 11ft 14s 9s 22 25 mph 1010.6mb 43f 41f
12:50pm 10ft 11s 8s 22 27 mph 1010.8mb 43f 41f
11:50am 9ft 13s 8s 25 29 mph 1011mb 43f 40f
10:50am 9.5ft 14s 8s 27 31 mph 1011.2mb 42f 41f
9:50am 11ft 11s 8s 25 31 mph 1011.4mb 43f 41f
8:50am 11ft 12s 7s 22 25 mph 1011.5mb 43f 42f
7:50am 10.5ft 12s 7s 22 29 mph 1011.3mb 43f 44f
6:50am 11ft 12s 7s 22 27 mph 1011.1mb 43f 43f
5:50am 10ft 13s 8s 25 29 mph 1010.4mb 43f 43f
4:50am 11ft 12s 8s 18 22 mph 1010mb 43f 42f
3:50am 9ft 11s 8s 25 31 mph 1009.4mb 42f 44f
2:50am 9ft 14s 8s 25 29 mph 1008.8mb 42f 44f
1:50am 8.5ft 12s 8s 25 29 mph 1008.2mb 43f 44f
12:50am 8ft 15s 8s 25 29 mph 1007.8mb 42f 44f
Sun 02/07 11:50pm 8ft 12s 7s 25 31 mph 1006.9mb 44f 44f
10:50pm 10.5ft 12s 8s 22 27 mph 1006.5mb 44f 42f
9:50pm 12ft 12s 8s 31 36 mph 1005.7mb 43f 40f
8:50pm 12.5ft 12s 8s 29 36 mph 1005.6mb 43f 41f
7:50pm 13ft 11s 7s 31 36 mph 1005.2mb 43f 40f
6:50pm 13ft 13s 8s 31 38 mph 1004.7mb 43f 40f
5:50pm 14.5ft 12s 8s 31 38 mph 1004.5mb 43f 38f
4:50pm 12ft 13s 8s 31 38 mph 1004.3mb 43f 38f
3:50pm 10.5ft 13s 8s 27 36 mph 1004.8mb 43f 40f
2:50pm 9ft 12s 8s 22 29 mph 1004.8mb 43f 38f
1:50pm 8ft 10s 8s 18 27 mph 1005.5mb 43f 37f
12:50pm 7ft 11s 8s 20 29 mph 1006.1mb 43f 40f
11:50am 6.5ft 10s 8s 18 22 mph 1006.5mb 43f 40f
10:50am 5.5ft 10s 8s 11 16 mph 1006.7mb 42f 40f
9:50am 5ft 10s 7s 9 13 mph 1006.7mb 42f 39f
8:50am 6ft 10s 7s 9
mph
1007.1mb 42f 39f
7:50am 6.5ft 9s 6s 9 11 mph 1008.1mb 43f 39f
6:50am 6.5ft 7s 6s 11 16 mph 1009.5mb 43f 40f
5:50am 6.5ft 11s 6s 16 18 mph 1011mb 43f 40f
4:50am 6ft 11s 7s 16 22 mph 1012.5mb 43f 40f
3:50am 5ft 11s 7s 18 25 mph 1013.4mb 43f 40f
2:50am 6ft 11s 6s 22 29 mph 1014.3mb 42f 40f
1:50am 6ft 11s 6s 25 29 mph 1014.8mb 43f 39f
12:50am 6ft 12s 6s 25 31 mph 1015.5mb 42f 40f
Sat 02/06 11:50pm 7ft 11s 7s 29 34 mph 1016mb 43f 39f
10:50pm 7ft 11s 7s 27 31 mph 1016.2mb 43f 39f
9:50pm 8ft 11s 7s 18 22 mph 1015.7mb 43f 42f
8:50pm 9ft 10s 6s 20 25 mph 1015.1mb 43f 42f
7:50pm 8.5ft 11s 6s 25 29 mph 1014.2mb 43f 42f
6:50pm 7.5ft 12s 6s 11 18 mph 1014mb 43f 39f
5:50pm 7.5ft 12s 7s 20 25 mph 1012.9mb 43f 39f
4:50pm 8ft 13s 7s 22 29 mph 1011.9mb 43f 41f
3:50pm 9ft 12s 8s 13 16 mph 1011mb 44f 43f
2:50pm 9ft 13s 8s 16 20 mph 1010mb 43f 42f
1:50pm 9ft 12s 7s 22 27 mph 1008.8mb 43f 41f
12:50pm 10ft 11s 7s 29 36 mph 1008.1mb 44f 40f
11:50am 9ft 11s 7s 31 36 mph 1007.4mb 44f 40f
10:50am 8ft 11s 7s 27 36 mph 1007.2mb 43f 39f
9:50am 7ft 12s 7s 29 36 mph 1006.4mb 43f 37f
8:50am 7.5ft 12s 6s 29 36 mph 1005.6mb 43f 39f
7:50am 7ft 10s 6s 29 36 mph 1004.8mb 43f 40f
6:50am 6ft 10s 6s 25 29 mph 1004.7mb 43f 39f
5:50am 7ft 12s 7s 25 29 mph 1004.3mb 43f 39f
4:50am 7ft 12s 8s 22 27 mph 1004.1mb 44f 40f
3:50am 6.5ft 12s 8s 13 20 mph 1003.7mb 43f 40f
2:50am 7ft 13s 8s 16 20 mph 1003mb 43f 38f
1:50am 7.5ft 12s 9s 18 25 mph 1002.1mb 42f 38f
12:50am 7ft 11s 8s 18 22 mph 1000.8mb 42f 39f
Fri 02/05 11:50pm 8ft 12s 8s 11 16 mph 999.9mb 42f 38f
10:50pm 9ft 12s 9s 7 9 mph 998.9mb 42f 39f
9:50pm 9ft 11s 9s 2 4 mph 998.1mb 43f 39f
8:50pm 9ft 11s 8s 7 9 mph 997.1mb 43f 39f
7:50pm 9ft 12s 8s 9 13 mph 996.2mb 44f 39f
6:50pm 9ft 11s 7s 16 22 mph 995.2mb 44f 40f
5:50pm 9.5ft 12s 7s 22 25 mph 994.3mb 44f 38f
4:50pm 9ft 12s 7s 22 27 mph 994.2mb 43f 37f